sensor_id;sensor_type;location;lat;lon;timestamp;P1;P2;P0
82821;PMS5003;72574;46.842;-71.246;2023-11-21T00:00:52;16.5;8.6;6.25
82821;PMS5003;72574;46.842;-71.246;2023-11-21T00:03:18;21.85;21.15;20.05
82821;PMS5003;72574;46.842;-71.246;2023-11-21T00:05:42;31.14;31.14;28.67
82821;PMS5003;72574;46.842;-71.246;2023-11-21T00:08:09;27.55;25;24.25
82821;PMS5003;72574;46.842;-71.246;2023-11-21T00:10:34;17.8;17.8;14.8
82821;PMS5003;72574;46.842;-71.246;2023-11-21T00:13:01;19;18.25;17.25
82821;PMS5003;72574;46.842;-71.246;2023-11-21T00:15:25;13;12.1;11.76
82821;PMS5003;72574;46.842;-71.246;2023-11-21T00:17:52;14.55;6.5;4.36
82821;PMS5003;72574;46.842;-71.246;2023-11-21T00:20:16;14.65;14.65;14.2
82821;PMS5003;72574;46.842;-71.246;2023-11-21T00:22:42;32.59;22.77;14.05
82821;PMS5003;72574;46.842;-71.246;2023-11-21T00:25:07;38.3;26.6;17.15
82821;PMS5003;72574;46.842;-71.246;2023-11-21T00:27:34;12.9;12.62;11
82821;PMS5003;72574;46.842;-71.246;2023-11-21T00:29:58;4.05;4.05;2
82821;PMS5003;72574;46.842;-71.246;2023-11-21T00:32:25;4;3.14;1.57
82821;PMS5003;72574;46.842;-71.246;2023-11-21T00:34:52;3.85;2.7;1.1
82821;PMS5003;72574;46.842;-71.246;2023-11-21T00:37:17;3.65;3.65;1.65
82821;PMS5003;72574;46.842;-71.246;2023-11-21T00:39:43;2.8;2.8;2
82821;PMS5003;72574;46.842;-71.246;2023-11-21T00:42:06;4.25;4.25;2
82821;PMS5003;72574;46.842;-71.246;2023-11-21T00:44:32;6.3;4.45;2.35
82821;PMS5003;72574;46.842;-71.246;2023-11-21T00:46:57;5.45;4.45;1.7
82821;PMS5003;72574;46.842;-71.246;2023-11-21T00:49:23;5.86;2.76;1.76
82821;PMS5003;72574;46.842;-71.246;2023-11-21T00:51:50;9.35;6.1;2.2
82821;PMS5003;72574;46.842;-71.246;2023-11-21T00:54:13;4;4;2
82821;PMS5003;72574;46.842;-71.246;2023-11-21T00:56:40;7.4;3.4;1.65
82821;PMS5003;72574;46.842;-71.246;2023-11-21T00:59:04;4;4;1.3
82821;PMS5003;72574;46.842;-71.246;2023-11-21T01:01:31;3.95;3.95;1.95
82821;PMS5003;72574;46.842;-71.246;2023-11-21T01:03:55;5.15;3;1.25
82821;PMS5003;72574;46.842;-71.246;2023-11-21T01:06:21;13.05;5.52;2
82821;PMS5003;72574;46.842;-71.246;2023-11-21T01:08:48;7;5.45;3.9
82821;PMS5003;72574;46.842;-71.246;2023-11-21T01:11:13;4.6;4.6;2.5
82821;PMS5003;72574;46.842;-71.246;2023-11-21T01:13:38;10.1;8.6;4.7
82821;PMS5003;72574;46.842;-71.246;2023-11-21T01:16:04;9.75;9.5;5.3
82821;PMS5003;72574;46.842;-71.246;2023-11-21T01:18:30;15;12.25;7.75
82821;PMS5003;72574;46.842;-71.246;2023-11-21T01:20:55;12.6;10.8;6.5
82821;PMS5003;72574;46.842;-71.246;2023-11-21T01:23:21;18.7;13;7.6
82821;PMS5003;72574;46.842;-71.246;2023-11-21T01:25:48;13.5;12.65;8.9
82821;PMS5003;72574;46.842;-71.246;2023-11-21T01:28:14;12.7;12.05;7.1
82821;PMS5003;72574;46.842;-71.246;2023-11-21T01:30:38;15.2;11.6;7
82821;PMS5003;72574;46.842;-71.246;2023-11-21T01:33:04;9.3;8.2;6.1
82821;PMS5003;72574;46.842;-71.246;2023-11-21T01:35:27;13.85;9.4;6.5
82821;PMS5003;72574;46.842;-71.246;2023-11-21T01:37:53;12;10.15;5.8
82821;PMS5003;72574;46.842;-71.246;2023-11-21T01:40:20;11.33;10.05;7.05
82821;PMS5003;72574;46.842;-71.246;2023-11-21T01:42:44;12.4;10.4;6.1
82821;PMS5003;72574;46.842;-71.246;2023-11-21T01:45:12;8.2;7.2;4.15
82821;PMS5003;72574;46.842;-71.246;2023-11-21T01:47:36;9.1;9.1;4.65
82821;PMS5003;72574;46.842;-71.246;2023-11-21T01:50:01;13.74;11.05;4.74
82821;PMS5003;72574;46.842;-71.246;2023-11-21T01:52:27;13.6;6.8;4.65
82821;PMS5003;72574;46.842;-71.246;2023-11-21T01:54:52;11.3;8.4;5
82821;PMS5003;72574;46.842;-71.246;2023-11-21T01:57:19;13.33;11.19;7.24
82821;PMS5003;72574;46.842;-71.246;2023-11-21T01:59:43;14.8;13;7.8
82821;PMS5003;72574;46.842;-71.246;2023-11-21T02:02:09;13.1;12.95;7.7
82821;PMS5003;72574;46.842;-71.246;2023-11-21T02:04:33;16.7;15.4;10.1
82821;PMS5003;72574;46.842;-71.246;2023-11-21T02:07:00;23.15;19.05;9.55
82821;PMS5003;72574;46.842;-71.246;2023-11-21T02:09:25;28.1;15.15;9.9
82821;PMS5003;72574;46.842;-71.246;2023-11-21T02:11:51;14.4;11.6;5.75
82821;PMS5003;72574;46.842;-71.246;2023-11-21T02:14:16;14.43;12.05;7.67
82821;PMS5003;72574;46.842;-71.246;2023-11-21T02:16:43;15.45;13.5;7.7
82821;PMS5003;72574;46.842;-71.246;2023-11-21T02:19:07;15.55;11.15;6.9
82821;PMS5003;72574;46.842;-71.246;2023-11-21T02:21:32;9.75;9.65;5.2
82821;PMS5003;72574;46.842;-71.246;2023-11-21T02:23:58;10.7;9.35;5.85
82821;PMS5003;72574;46.842;-71.246;2023-11-21T02:26:22;12.75;12.55;7.65
82821;PMS5003;72574;46.842;-71.246;2023-11-21T02:28:48;11.45;9.9;7.95
82821;PMS5003;72574;46.842;-71.246;2023-11-21T02:31:14;11.9;9;3.95
82821;PMS5003;72574;46.842;-71.246;2023-11-21T02:33:39;10.1;8.8;6.25
82821;PMS5003;72574;46.842;-71.246;2023-11-21T02:36:05;11.5;9.95;6.7
82821;PMS5003;72574;46.842;-71.246;2023-11-21T02:38:31;7.15;7.05;4.05
82821;PMS5003;72574;46.842;-71.246;2023-11-21T02:40:57;9.75;7.6;6.1
82821;PMS5003;72574;46.842;-71.246;2023-11-21T02:43:20;7.15;7.15;4.05
82821;PMS5003;72574;46.842;-71.246;2023-11-21T02:45:45;9.95;8.7;4.95
82821;PMS5003;72574;46.842;-71.246;2023-11-21T02:48:11;10.38;9.1;4.29
82821;PMS5003;72574;46.842;-71.246;2023-11-21T02:50:37;11.5;9.15;5.65
82821;PMS5003;72574;46.842;-71.246;2023-11-21T02:53:03;9.74;9.58;5.95
82821;PMS5003;72574;46.842;-71.246;2023-11-21T02:55:28;12.89;9.53;5
82821;PMS5003;72574;46.842;-71.246;2023-11-21T02:57:53;8.45;8.45;6.4
82821;PMS5003;72574;46.842;-71.246;2023-11-21T03:00:19;11.85;8.8;4.05
82821;PMS5003;72574;46.842;-71.246;2023-11-21T03:02:45;10.2;9.05;5.6
82821;PMS5003;72574;46.842;-71.246;2023-11-21T03:05:10;13.19;11.14;6.43
82821;PMS5003;72574;46.842;-71.246;2023-11-21T03:07:36;9.85;8.35;5.5
82821;PMS5003;72574;46.842;-71.246;2023-11-21T03:10:00;14.2;12.3;6.8
82821;PMS5003;72574;46.842;-71.246;2023-11-21T03:12:26;8.8;6.8;3.5
82821;PMS5003;72574;46.842;-71.246;2023-11-21T03:14:52;9.5;8.8;4.05
82821;PMS5003;72574;46.842;-71.246;2023-11-21T03:17:17;10.9;10;6.25
82821;PMS5003;72574;46.842;-71.246;2023-11-21T03:19:42;7.65;7;4.6
82821;PMS5003;72574;46.842;-71.246;2023-11-21T03:22:07;7;5.52;3.71
82821;PMS5003;72574;46.842;-71.246;2023-11-21T03:24:34;5.8;4.45;2.95
82821;PMS5003;72574;46.842;-71.246;2023-11-21T03:26:59;2.55;2.55;1.1
82821;PMS5003;72574;46.842;-71.246;2023-11-21T03:29:25;5;3.8;2.35
82821;PMS5003;72574;46.842;-71.246;2023-11-21T03:31:49;4.2;3;1.75
82821;PMS5003;72574;46.842;-71.246;2023-11-21T03:34:23;6.6;4.55;2.3
82821;PMS5003;72574;46.842;-71.246;2023-11-21T03:36:40;4.2;3.95;2.25
82821;PMS5003;72574;46.842;-71.246;2023-11-21T03:39:06;4.19;4.19;2.76
82821;PMS5003;72574;46.842;-71.246;2023-11-21T03:41:32;4.15;4.15;2.55
82821;PMS5003;72574;46.842;-71.246;2023-11-21T03:43:56;5.6;5.6;2.55
82821;PMS5003;72574;46.842;-71.246;2023-11-21T03:46:21;3.4;2.35;1.6
82821;PMS5003;72574;46.842;-71.246;2023-11-21T03:48:47;4;4;1.8
82821;PMS5003;72574;46.842;-71.246;2023-11-21T03:51:11;5.8;4.45;2.45
82821;PMS5003;72574;46.842;-71.246;2023-11-21T03:53:36;3.15;2.35;1.25
82821;PMS5003;72574;46.842;-71.246;2023-11-21T03:56:02;6.24;5.19;1.57
82821;PMS5003;72574;46.842;-71.246;2023-11-21T03:58:29;2.4;2.2;1
82821;PMS5003;72574;46.842;-71.246;2023-11-21T04:00:55;2.15;1.9;0.8
82821;PMS5003;72574;46.842;-71.246;2023-11-21T04:03:19;3.2;2.35;1.1
82821;PMS5003;72574;46.842;-71.246;2023-11-21T04:05:45;3.6;2.75;1
82821;PMS5003;72574;46.842;-71.246;2023-11-21T04:08:10;2.4;2.4;2.35
82821;PMS5003;72574;46.842;-71.246;2023-11-21T04:10:33;3.7;2.6;1.55
82821;PMS5003;72574;46.842;-71.246;2023-11-21T04:13:01;1.9;1.9;1
82821;PMS5003;72574;46.842;-71.246;2023-11-21T04:15:27;3.55;2.95;1
82821;PMS5003;72574;46.842;-71.246;2023-11-21T04:17:53;2.7;2.7;1.45
82821;PMS5003;72574;46.842;-71.246;2023-11-21T04:20:15;3.05;3.05;1.8
82821;PMS5003;72574;46.842;-71.246;2023-11-21T04:22:44;4;3.8;2.35
82821;PMS5003;72574;46.842;-71.246;2023-11-21T04:25:08;5.15;2.8;1.1
82821;PMS5003;72574;46.842;-71.246;2023-11-21T04:27:34;7.5;4.65;1.9
82821;PMS5003;72574;46.842;-71.246;2023-11-21T04:29:59;2.95;2.67;1.29
82821;PMS5003;72574;46.842;-71.246;2023-11-21T04:32:25;4.4;4.15;1
82821;PMS5003;72574;46.842;-71.246;2023-11-21T04:34:50;3.15;2.55;1.35
82821;PMS5003;72574;46.842;-71.246;2023-11-21T04:37:14;4.35;3.4;1.25
82821;PMS5003;72574;46.842;-71.246;2023-11-21T04:39:40;5.25;3.7;1.9
82821;PMS5003;72574;46.842;-71.246;2023-11-21T04:42:05;3.35;3.1;1
82821;PMS5003;72574;46.842;-71.246;2023-11-21T04:44:32;5.7;3.8;1.95
82821;PMS5003;72574;46.842;-71.246;2023-11-21T04:46:57;2.48;2.29;0.81
82821;PMS5003;72574;46.842;-71.246;2023-11-21T04:49:21;4.35;2.55;1
82821;PMS5003;72574;46.842;-71.246;2023-11-21T04:51:47;1.9;1.9;0.75
82821;PMS5003;72574;46.842;-71.246;2023-11-21T04:54:13;4.3;3.8;2.55
82821;PMS5003;72574;46.842;-71.246;2023-11-21T04:56:38;3.55;3.55;2.1
82821;PMS5003;72574;46.842;-71.246;2023-11-21T04:59:03;4.9;3.6;1.45
82821;PMS5003;72574;46.842;-71.246;2023-11-21T05:01:27;6.4;4.85;1.5
82821;PMS5003;72574;46.842;-71.246;2023-11-21T05:03:54;4.76;3.33;1.19
82821;PMS5003;72574;46.842;-71.246;2023-11-21T05:06:20;3.65;3.65;1
82821;PMS5003;72574;46.842;-71.246;2023-11-21T05:08:44;3;3;1
82821;PMS5003;72574;46.842;-71.246;2023-11-21T05:11:11;3.7;3;1.9
82821;PMS5003;72574;46.842;-71.246;2023-11-21T05:13:37;3.8;3.8;0.95
82821;PMS5003;72574;46.842;-71.246;2023-11-21T05:16:00;5.2;4;2.75
82821;PMS5003;72574;46.842;-71.246;2023-11-21T05:18:27;6;3.9;1.2
82821;PMS5003;72574;46.842;-71.246;2023-11-21T05:20:54;6.14;4.48;2.24
82821;PMS5003;72574;46.842;-71.246;2023-11-21T05:23:17;5.95;4.6;2.9
82821;PMS5003;72574;46.842;-71.246;2023-11-21T05:25:43;5;3.65;2.3
82821;PMS5003;72574;46.842;-71.246;2023-11-21T05:28:09;6.25;5.35;2.85
82821;PMS5003;72574;46.842;-71.246;2023-11-21T05:30:35;9.35;7.7;3.25
82821;PMS5003;72574;46.842;-71.246;2023-11-21T05:32:59;6.4;4.65;3
82821;PMS5003;72574;46.842;-71.246;2023-11-21T05:35:31;8.1;7.67;5.19
82821;PMS5003;72574;46.842;-71.246;2023-11-21T05:37:57;5.57;5;2.76
82821;PMS5003;72574;46.842;-71.246;2023-11-21T05:40:23;5.25;4.15;1.35
82821;PMS5003;72574;46.842;-71.246;2023-11-21T05:42:48;6.05;5.1;1.95
82821;PMS5003;72574;46.842;-71.246;2023-11-21T05:45:13;6.8;5.6;2.6
82821;PMS5003;72574;46.842;-71.246;2023-11-21T05:47:36;5.4;5.4;3.25
82821;PMS5003;72574;46.842;-71.246;2023-11-21T05:50:03;5.7;3.65;3.4
82821;PMS5003;72574;46.842;-71.246;2023-11-21T05:52:27;6.43;5.43;2.86
82821;PMS5003;72574;46.842;-71.246;2023-11-21T05:54:53;11.6;9.4;4
82821;PMS5003;72574;46.842;-71.246;2023-11-21T05:57:19;6;6;3.65
82821;PMS5003;72574;46.842;-71.246;2023-11-21T05:59:44;6.15;6.15;3.55
82821;PMS5003;72574;46.842;-71.246;2023-11-21T06:02:11;5.35;4.6;2.5
82821;PMS5003;72574;46.842;-71.246;2023-11-21T06:04:35;7.75;7.75;4.9
82821;PMS5003;72574;46.842;-71.246;2023-11-21T06:07:01;10.5;9.35;6.1
82821;PMS5003;72574;46.842;-71.246;2023-11-21T06:09:25;4;4;2.24
82821;PMS5003;72574;46.842;-71.246;2023-11-21T06:11:51;4.4;4;3.05
82821;PMS5003;72574;46.842;-71.246;2023-11-21T06:14:18;4;3.2;1.2
82821;PMS5003;72574;46.842;-71.246;2023-11-21T06:16:44;3.7;3.7;2.4
82821;PMS5003;72574;46.842;-71.246;2023-11-21T06:19:08;3.7;2.55;2.5
82821;PMS5003;72574;46.842;-71.246;2023-11-21T06:21:32;3.8;2.4;1
82821;PMS5003;72574;46.842;-71.246;2023-11-21T06:23:57;7.6;6;3.5
82821;PMS5003;72574;46.842;-71.246;2023-11-21T06:26:24;13.1;12.6;6.15
82821;PMS5003;72574;46.842;-71.246;2023-11-21T06:28:51;9.81;9.24;6.1
82821;PMS5003;72574;46.842;-71.246;2023-11-21T06:31:14;6.8;6.45;2.9
82821;PMS5003;72574;46.842;-71.246;2023-11-21T06:33:39;3.7;2.85;1.2
82821;PMS5003;72574;46.842;-71.246;2023-11-21T06:36:06;4;4;2.8
82821;PMS5003;72574;46.842;-71.246;2023-11-21T06:38:30;3.25;2.5;0.25
82821;PMS5003;72574;46.842;-71.246;2023-11-21T06:40:55;4.65;3.1;2.1
82821;PMS5003;72574;46.842;-71.246;2023-11-21T06:43:21;3.38;1.76;1
82821;PMS5003;72574;46.842;-71.246;2023-11-21T06:45:48;4.9;4.4;1.5
82821;PMS5003;72574;46.842;-71.246;2023-11-21T06:48:13;3.7;3.7;1.5
82821;PMS5003;72574;46.842;-71.246;2023-11-21T06:50:38;2.8;2.8;1
82821;PMS5003;72574;46.842;-71.246;2023-11-21T06:53:04;4.7;3.5;1.2
82821;PMS5003;72574;46.842;-71.246;2023-11-21T06:55:29;6.15;3;1
82821;PMS5003;72574;46.842;-71.246;2023-11-21T06:57:54;6.62;3.9;1
82821;PMS5003;72574;46.842;-71.246;2023-11-21T07:00:21;1.57;1;1
82821;PMS5003;72574;46.842;-71.246;2023-11-21T07:02:46;7.6;5.8;3.25
82821;PMS5003;72574;46.842;-71.246;2023-11-21T07:05:12;4.75;3.8;3.4
82821;PMS5003;72574;46.842;-71.246;2023-11-21T07:07:35;6.35;5.85;3.05
82821;PMS5003;72574;46.842;-71.246;2023-11-21T07:10:04;3.65;3.55;1.8
82821;PMS5003;72574;46.842;-71.246;2023-11-21T07:12:27;4.15;4;3
82821;PMS5003;72574;46.842;-71.246;2023-11-21T07:14:52;5.5;4;3
82821;PMS5003;72574;46.842;-71.246;2023-11-21T07:17:18;4.95;4.86;1.86
82821;PMS5003;72574;46.842;-71.246;2023-11-21T07:19:42;6.6;6;3.55
82821;PMS5003;72574;46.842;-71.246;2023-11-21T07:22:09;4.65;4.1;2.9
82821;PMS5003;72574;46.842;-71.246;2023-11-21T07:24:34;3.75;3.75;1
82821;PMS5003;72574;46.842;-71.246;2023-11-21T07:26:59;3.8;3.5;1.5
82821;PMS5003;72574;46.842;-71.246;2023-11-21T07:29:26;3.75;3.75;2.8
82821;PMS5003;72574;46.842;-71.246;2023-11-21T07:31:51;6.1;6.1;3
82821;PMS5003;72574;46.842;-71.246;2023-11-21T07:34:16;3.9;3.9;2.33
82821;PMS5003;72574;46.842;-71.246;2023-11-21T07:36:41;4.89;3.26;2.47
82821;PMS5003;72574;46.842;-71.246;2023-11-21T07:39:06;3.2;3;0.8
82821;PMS5003;72574;46.842;-71.246;2023-11-21T07:41:33;1.4;1.4;1
82821;PMS5003;72574;46.842;-71.246;2023-11-21T07:43:56;3.1;1.2;0.75
82821;PMS5003;72574;46.842;-71.246;2023-11-21T07:46:23;1.45;0.95;0.55
82821;PMS5003;72574;46.842;-71.246;2023-11-21T07:48:49;2.8;2.8;1
82821;PMS5003;72574;46.842;-71.246;2023-11-21T07:51:15;4.67;1.1;0.95
82821;PMS5003;72574;46.842;-71.246;2023-11-21T07:53:38;4.5;3.4;2.5
82821;PMS5003;72574;46.842;-71.246;2023-11-21T07:56:05;2.8;2.8;1
82821;PMS5003;72574;46.842;-71.246;2023-11-21T07:58:29;3.75;2.8;1
82821;PMS5003;72574;46.842;-71.246;2023-11-21T08:00:55;5;3.8;1
82821;PMS5003;72574;46.842;-71.246;2023-11-21T08:03:20;2.1;2.1;0.95
82821;PMS5003;72574;46.842;-71.246;2023-11-21T08:05:46;3.25;2.4;0.8
82821;PMS5003;72574;46.842;-71.246;2023-11-21T08:08:11;3;3;1
82821;PMS5003;72574;46.842;-71.246;2023-11-21T08:10:36;3.8;3.55;1
82821;PMS5003;72574;46.842;-71.246;2023-11-21T08:13:02;3.6;2.8;0.8
82821;PMS5003;72574;46.842;-71.246;2023-11-21T08:15:26;2.1;2;0.9
82821;PMS5003;72574;46.842;-71.246;2023-11-21T08:17:52;2.8;2.8;0.9
82821;PMS5003;72574;46.842;-71.246;2023-11-21T08:20:19;3.05;2.55;0.65
82821;PMS5003;72574;46.842;-71.246;2023-11-21T08:22:44;1.8;1.75;0.9
82821;PMS5003;72574;46.842;-71.246;2023-11-21T08:25:09;3.62;3.43;2.57
82821;PMS5003;72574;46.842;-71.246;2023-11-21T08:27:36;4.1;3.81;2.9
82821;PMS5003;72574;46.842;-71.246;2023-11-21T08:30:00;3.9;1.8;1
82821;PMS5003;72574;46.842;-71.246;2023-11-21T08:32:26;3.9;3.75;0.45
82821;PMS5003;72574;46.842;-71.246;2023-11-21T08:34:51;2.4;1.8;0.9
82821;PMS5003;72574;46.842;-71.246;2023-11-21T08:37:15;1.4;1.4;0.35
82821;PMS5003;72574;46.842;-71.246;2023-11-21T08:39:43;4.19;4;3
82821;PMS5003;72574;46.842;-71.246;2023-11-21T08:42:07;2.76;2.76;0.95
82821;PMS5003;72574;46.842;-71.246;2023-11-21T08:44:32;4.86;2.05;1
82821;PMS5003;72574;46.842;-71.246;2023-11-21T08:46:57;3.52;3.24;1.48
82821;PMS5003;72574;46.842;-71.246;2023-11-21T08:49:22;6.52;6.52;3.24
82821;PMS5003;72574;46.842;-71.246;2023-11-21T08:51:49;4.14;4.14;3
82821;PMS5003;72574;46.842;-71.246;2023-11-21T08:54:12;8.9;6.52;3.81
82821;PMS5003;72574;46.842;-71.246;2023-11-21T08:56:39;9.9;8.24;3.67
82821;PMS5003;72574;46.842;-71.246;2023-11-21T08:59:04;7.68;5.68;2.36
82821;PMS5003;72574;46.842;-71.246;2023-11-21T09:12:39;7.38;5.14;1
82821;PMS5003;72574;46.842;-71.246;2023-11-21T09:12:48;5.64;4;3
82821;PMS5003;72574;46.842;-71.246;2023-11-21T09:12:57;7.82;6.32;1.82
82821;PMS5003;72574;46.842;-71.246;2023-11-21T09:13:05;5.64;4.82;2.18
82821;PMS5003;72574;46.842;-71.246;2023-11-21T09:13:18;3.41;3;1
82821;PMS5003;72574;46.842;-71.246;2023-11-21T09:15:18;3.32;1.82;0.95
82821;PMS5003;72574;46.842;-71.246;2023-11-21T09:17:43;3.33;3;1.19
82821;PMS5003;72574;46.842;-71.246;2023-11-21T09:20:10;3.95;3.48;1
82821;PMS5003;72574;46.842;-71.246;2023-11-21T09:22:33;3.05;3;0.1
82821;PMS5003;72574;46.842;-71.246;2023-11-21T09:25:01;3.1;3.1;1.19
82821;PMS5003;72574;46.842;-71.246;2023-11-21T09:27:25;1.95;1.95;0.48
82821;PMS5003;72574;46.842;-71.246;2023-11-21T09:29:49;1.95;1.67;0.9
82821;PMS5003;72574;46.842;-71.246;2023-11-21T09:32:17;3.68;3.09;1
82821;PMS5003;72574;46.842;-71.246;2023-11-21T09:34:41;4.67;3.24;0.9
82821;PMS5003;72574;46.842;-71.246;2023-11-21T09:37:06;4.76;1.19;0.48
82821;PMS5003;72574;46.842;-71.246;2023-11-21T09:39:31;5.81;3.14;0.62
82821;PMS5003;72574;46.842;-71.246;2023-11-21T09:42:00;2.65;2.65;1.15
82821;PMS5003;72574;46.842;-71.246;2023-11-21T09:44:25;3.62;3;0.95
82821;PMS5003;72574;46.842;-71.246;2023-11-21T09:46:47;3.14;2.33;1
82821;PMS5003;72574;46.842;-71.246;2023-11-21T09:49:13;1.36;1;0
82821;PMS5003;72574;46.842;-71.246;2023-11-21T09:51:39;1.48;1.48;1
82821;PMS5003;72574;46.842;-71.246;2023-11-21T09:54:04;3.4;1.8;0.7
82821;PMS5003;72574;46.842;-71.246;2023-11-21T09:56:30;3.1;2.1;1
82821;PMS5003;72574;46.842;-71.246;2023-11-21T09:58:56;1.76;1.48;1
82821;PMS5003;72574;46.842;-71.246;2023-11-21T10:01:22;3.9;3.24;1
82821;PMS5003;72574;46.842;-71.246;2023-11-21T10:03:46;4;3;1
82821;PMS5003;72574;46.842;-71.246;2023-11-21T10:06:13;2.09;1;1
82821;PMS5003;72574;46.842;-71.246;2023-11-21T10:08:39;2.57;2.33;1
82821;PMS5003;72574;46.842;-71.246;2023-11-21T10:11:03;3;2.9;1
82821;PMS5003;72574;46.842;-71.246;2023-11-21T10:13:30;2.81;1;0
82821;PMS5003;72574;46.842;-71.246;2023-11-21T10:15:53;1;1;0.38
82821;PMS5003;72574;46.842;-71.246;2023-11-21T10:18:18;1.48;1;0.38
82821;PMS5003;72574;46.842;-71.246;2023-11-21T10:20:44;1.5;1.5;0.25
82821;PMS5003;72574;46.842;-71.246;2023-11-21T10:23:10;1.23;1;0.82
82821;PMS5003;72574;46.842;-71.246;2023-11-21T10:25:35;3.1;3.1;1
82821;PMS5003;72574;46.842;-71.246;2023-11-21T10:28:02;2.52;1.1;1
82821;PMS5003;72574;46.842;-71.246;2023-11-21T10:30:27;2.14;2.14;0.67
82821;PMS5003;72574;46.842;-71.246;2023-11-21T10:32:54;2.05;1;0.38
82821;PMS5003;72574;46.842;-71.246;2023-11-21T10:35:17;2.24;1.48;0.76
82821;PMS5003;72574;46.842;-71.246;2023-11-21T10:37:42;1.76;1;0.9
82821;PMS5003;72574;46.842;-71.246;2023-11-21T10:40:09;2.27;0.68;0
82821;PMS5003;72574;46.842;-71.246;2023-11-21T10:42:33;1;1;0.24
82821;PMS5003;72574;46.842;-71.246;2023-11-21T10:44:58;1.76;0.81;0.67
82821;PMS5003;72574;46.842;-71.246;2023-11-21T10:47:23;0.48;0.48;0
82821;PMS5003;72574;46.842;-71.246;2023-11-21T10:49:51;1.38;0.76;0.52
82821;PMS5003;72574;46.842;-71.246;2023-11-21T10:52:18;1.48;1;0.52
82821;PMS5003;72574;46.842;-71.246;2023-11-21T10:54:39;2.24;1.1;0
82821;PMS5003;72574;46.842;-71.246;2023-11-21T10:57:07;1.82;1;0.09
82821;PMS5003;72574;46.842;-71.246;2023-11-21T10:59:33;3.9;3.35;1
82821;PMS5003;72574;46.842;-71.246;2023-11-21T11:01:55;2.9;2.9;1
82821;PMS5003;72574;46.842;-71.246;2023-11-21T11:04:22;1;1;0.67
82821;PMS5003;72574;46.842;-71.246;2023-11-21T11:06:48;2.33;2.33;0.1
82821;PMS5003;72574;46.842;-71.246;2023-11-21T11:09:13;1.76;1;1
82821;PMS5003;72574;46.842;-71.246;2023-11-21T11:11:37;2.05;2.05;1
82821;PMS5003;72574;46.842;-71.246;2023-11-21T11:14:05;1.55;1.55;0.27
82821;PMS5003;72574;46.842;-71.246;2023-11-21T11:16:28;3;2.81;1
82821;PMS5003;72574;46.842;-71.246;2023-11-21T11:18:56;2.86;1;0.52
82821;PMS5003;72574;46.842;-71.246;2023-11-21T11:21:22;3.38;3.38;0.9
82821;PMS5003;72574;46.842;-71.246;2023-11-21T11:23:46;1.2;1.2;1
82821;PMS5003;72574;46.842;-71.246;2023-11-21T11:26:14;4.29;3.05;0.81
82821;PMS5003;72574;46.842;-71.246;2023-11-21T11:28:37;3.24;3.1;1
82821;PMS5003;72574;46.842;-71.246;2023-11-21T11:31:04;7;4.57;1.76
82821;PMS5003;72574;46.842;-71.246;2023-11-21T11:33:29;7.1;5.45;3
82821;PMS5003;72574;46.842;-71.246;2023-11-21T11:35:54;12.55;8.1;3.55
82821;PMS5003;72574;46.842;-71.246;2023-11-21T11:38:18;6.9;6.8;3.35
82821;PMS5003;72574;46.842;-71.246;2023-11-21T11:40:44;9.67;8.14;3.9
82821;PMS5003;72574;46.842;-71.246;2023-11-21T11:43:07;9.95;7;3.9
82821;PMS5003;72574;46.842;-71.246;2023-11-21T11:45:34;19.1;15.05;9.2
82821;PMS5003;72574;46.842;-71.246;2023-11-21T11:48:00;21.48;18.14;11.62
82821;PMS5003;72574;46.842;-71.246;2023-11-21T11:50:23;18.65;17;9.1
82821;PMS5003;72574;46.842;-71.246;2023-11-21T11:52:52;9.8;8.6;6.1
82821;PMS5003;72574;46.842;-71.246;2023-11-21T11:55:17;12.15;9.1;4.4
82821;PMS5003;72574;46.842;-71.246;2023-11-21T11:57:40;11.2;10.2;6.05
82821;PMS5003;72574;46.842;-71.246;2023-11-21T12:00:08;30.25;23;13
82821;PMS5003;72574;46.842;-71.246;2023-11-21T12:02:31;24.45;18.5;8.1
82821;PMS5003;72574;46.842;-71.246;2023-11-21T12:04:58;7.86;7.57;3.62
82821;PMS5003;72574;46.842;-71.246;2023-11-21T12:07:24;9.6;8.55;6
82821;PMS5003;72574;46.842;-71.246;2023-11-21T12:09:49;9.1;6.9;5
82821;PMS5003;72574;46.842;-71.246;2023-11-21T12:12:13;4.1;4.05;3.35
82821;PMS5003;72574;46.842;-71.246;2023-11-21T12:14:38;11.1;6.9;3.1
82821;PMS5003;72574;46.842;-71.246;2023-11-21T12:17:04;6.1;6;3
82821;PMS5003;72574;46.842;-71.246;2023-11-21T12:19:30;14;8.6;3.75
82821;PMS5003;72574;46.842;-71.246;2023-11-21T12:21:55;6;6;3.19
82821;PMS5003;72574;46.842;-71.246;2023-11-21T12:24:19;7.7;6.1;3.95
82821;PMS5003;72574;46.842;-71.246;2023-11-21T12:26:47;19.65;8.05;4.3
82821;PMS5003;72574;46.842;-71.246;2023-11-21T12:29:10;12.25;7.75;3.65
82821;PMS5003;72574;46.842;-71.246;2023-11-21T12:31:37;7;6.3;3.2
82821;PMS5003;72574;46.842;-71.246;2023-11-21T12:34:01;9.8;6.65;3.4
82821;PMS5003;72574;46.842;-71.246;2023-11-21T12:36:34;12.05;10.24;4.38
82821;PMS5003;72574;46.842;-71.246;2023-11-21T12:39:02;7.41;7.14;3.55
82821;PMS5003;72574;46.842;-71.246;2023-11-21T12:41:29;7.67;6.86;3.38
82821;PMS5003;72574;46.842;-71.246;2023-11-21T12:43:54;5.05;4.76;3.1
82821;PMS5003;72574;46.842;-71.246;2023-11-21T12:46:18;4.29;3.86;2.05
82821;PMS5003;72574;46.842;-71.246;2023-11-21T12:48:43;7.6;5.3;3
82821;PMS5003;72574;46.842;-71.246;2023-11-21T12:51:08;7.24;6.81;3.67
82821;PMS5003;72574;46.842;-71.246;2023-11-21T12:53:37;7.48;7.48;4.19
82821;PMS5003;72574;46.842;-71.246;2023-11-21T12:56:01;7.8;6;3.5
82821;PMS5003;72574;46.842;-71.246;2023-11-21T12:58:26;6.55;5.95;3
82821;PMS5003;72574;46.842;-71.246;2023-11-21T13:00:51;8.19;6;3
82821;PMS5003;72574;46.842;-71.246;2023-11-21T13:03:17;6.86;6.1;3.1
82821;PMS5003;72574;46.842;-71.246;2023-11-21T13:05:45;5.33;5.33;3.52
82821;PMS5003;72574;46.842;-71.246;2023-11-21T13:08:08;5.75;5.75;2.9
82821;PMS5003;72574;46.842;-71.246;2023-11-21T13:10:34;7.38;7.33;4
82821;PMS5003;72574;46.842;-71.246;2023-11-21T13:12:58;7.25;6.05;3.95
82821;PMS5003;72574;46.842;-71.246;2023-11-21T13:15:24;6.1;4;1.95
82821;PMS5003;72574;46.842;-71.246;2023-11-21T13:17:49;9.55;8.5;4
82821;PMS5003;72574;46.842;-71.246;2023-11-21T13:20:16;10.15;7.35;4.65
82821;PMS5003;72574;46.842;-71.246;2023-11-21T13:22:39;8.65;6.85;4.55
82821;PMS5003;72574;46.842;-71.246;2023-11-21T13:25:06;9.1;7.4;2.2
82821;PMS5003;72574;46.842;-71.246;2023-11-21T13:27:30;9.38;7.71;4.43
82821;PMS5003;72574;46.842;-71.246;2023-11-21T13:29:56;9.8;8.55;4.55
82821;PMS5003;72574;46.842;-71.246;2023-11-21T13:32:20;8.1;7.33;4.19
82821;PMS5003;72574;46.842;-71.246;2023-11-21T13:34:45;8;5.67;2.29
82821;PMS5003;72574;46.842;-71.246;2023-11-21T13:37:12;12.33;8.76;4.14
82821;PMS5003;72574;46.842;-71.246;2023-11-21T13:39:35;9.71;7.14;4.24
82821;PMS5003;72574;46.842;-71.246;2023-11-21T13:42:02;7.81;5.57;4.1
82821;PMS5003;72574;46.842;-71.246;2023-11-21T13:44:28;8.64;7.64;4.95
82821;PMS5003;72574;46.842;-71.246;2023-11-21T13:46:54;12.33;10.33;6.62
82821;PMS5003;72574;46.842;-71.246;2023-11-21T13:49:19;10.81;7.71;5
82821;PMS5003;72574;46.842;-71.246;2023-11-21T13:51:43;9.29;9.29;5
82821;PMS5003;72574;46.842;-71.246;2023-11-21T13:54:10;9.33;6.62;4
82821;PMS5003;72574;46.842;-71.246;2023-11-21T13:56:34;7.67;4.1;3.33
82821;PMS5003;72574;46.842;-71.246;2023-11-21T13:58:59;7.24;5.9;2.19
82821;PMS5003;72574;46.842;-71.246;2023-11-21T14:01:37;9.91;6.27;4
82821;PMS5003;72574;46.842;-71.246;2023-11-21T14:03:52;8.52;7.86;4.1
82821;PMS5003;72574;46.842;-71.246;2023-11-21T14:06:23;10.1;8;4.9
82821;PMS5003;72574;46.842;-71.246;2023-11-21T14:08:41;8.76;7.52;4.24
82821;PMS5003;72574;46.842;-71.246;2023-11-21T14:11:07;8.38;7.81;4.52
82821;PMS5003;72574;46.842;-71.246;2023-11-21T14:13:33;6.76;5.38;3.62